createdAt,value
2022-12-13T00:01:11.595Z,53.60
2022-12-13T00:04:15.394Z,51.10
2022-12-13T00:07:19.040Z,45.90
2022-12-13T00:10:22.635Z,50.33
2022-12-13T00:13:27.774Z,45.47
2022-12-13T00:16:31.520Z,47.70
2022-12-13T00:19:35.147Z,47.43
2022-12-13T00:22:38.788Z,48.07
2022-12-13T00:25:42.406Z,42.73
2022-12-13T00:28:49.587Z,45.63
2022-12-13T00:32:01.341Z,42.90
2022-12-13T00:35:05.656Z,48.13
2022-12-13T00:38:11.525Z,46.30
2022-12-13T00:41:18.491Z,45.70
2022-12-13T00:44:23.500Z,44.30
2022-12-13T00:47:27.908Z,44.57
2022-12-13T00:50:31.482Z,43.30
2022-12-13T00:53:35.503Z,46.27
2022-12-13T00:56:39.764Z,46.20
2022-12-13T00:59:44.753Z,45.77
2022-12-13T01:02:48.298Z,41.80
2022-12-13T01:09:24.223Z,46.23
2022-12-13T01:12:27.886Z,42.50
2022-12-13T01:15:32.911Z,46.07
2022-12-13T01:18:37.943Z,45.13
2022-12-13T01:21:41.656Z,45.10
2022-12-13T01:24:45.862Z,45.37
2022-12-13T01:27:49.469Z,43.90
2022-12-13T01:30:58.991Z,44.20
2022-12-13T01:34:10.722Z,43.97
2022-12-13T01:37:14.446Z,50.10
2022-12-13T01:40:18.284Z,40.97
2022-12-13T01:43:21.972Z,43.80
2022-12-13T01:46:26.962Z,49.17
2022-12-13T01:49:30.675Z,49.07
2022-12-13T01:52:36.105Z,47.13
2022-12-13T01:55:42.134Z,47.67
2022-12-13T01:58:48.678Z,49.03
2022-12-13T02:01:54.228Z,46.87
2022-12-13T02:05:11.445Z,39.73
2022-12-13T02:08:19.664Z,45.93
2022-12-13T02:11:24.001Z,48.90
2022-12-13T02:14:27.602Z,43.70
2022-12-13T02:17:53.620Z,45.77
2022-12-13T02:21:20.589Z,48.47
2022-12-13T02:25:04.534Z,41.47
2022-12-13T02:28:33.854Z,41.20
2022-12-13T02:31:52.260Z,39.97
2022-12-13T02:35:06.754Z,42.93
2022-12-13T02:38:24.444Z,42.53
2022-12-13T02:41:37.808Z,42.27
2022-12-13T02:44:48.353Z,45.33
2022-12-13T02:47:57.735Z,45.47
2022-12-13T02:51:06.270Z,39.17
2022-12-13T02:54:10.041Z,47.27
2022-12-13T02:57:32.886Z,39.53
2022-12-13T03:00:52.424Z,45.33
2022-12-13T03:04:11.428Z,48.03
2022-12-13T03:07:26.486Z,47.97
2022-12-13T03:10:39.030Z,48.57
2022-12-13T03:13:59.357Z,45.87
2022-12-13T03:17:07.570Z,45.00
2022-12-13T03:20:22.854Z,43.70
2022-12-13T03:23:28.779Z,48.30
2022-12-13T03:26:32.585Z,44.67
2022-12-13T03:29:36.260Z,44.80
2022-12-13T03:32:39.886Z,43.93
2022-12-13T03:35:46.230Z,40.57
2022-12-13T03:38:53.399Z,40.33
2022-12-13T03:41:57.156Z,40.93
2022-12-13T03:45:00.761Z,44.00
2022-12-13T03:48:04.697Z,46.00
2022-12-13T03:51:09.706Z,44.13
2022-12-13T03:54:13.315Z,43.43
2022-12-13T03:57:17.014Z,37.70
2022-12-13T04:00:21.010Z,44.10
2022-12-13T04:03:24.684Z,43.17
2022-12-13T04:06:33.005Z,40.20
2022-12-13T04:09:37.063Z,42.47
2022-12-13T04:13:00.393Z,42.70
2022-12-13T04:16:04.599Z,42.27
2022-12-13T04:19:08.460Z,35.67
2022-12-13T04:22:13.552Z,35.90
2022-12-13T04:25:17.594Z,33.30
2022-12-13T04:28:21.841Z,37.80
2022-12-13T04:31:26.408Z,43.97
2022-12-13T04:34:36.547Z,39.73
2022-12-13T04:37:43.515Z,35.87
2022-12-13T04:40:47.383Z,35.50
2022-12-13T04:43:53.805Z,36.00
2022-12-13T04:47:00.758Z,36.73
2022-12-13T04:50:05.794Z,41.57
2022-12-13T04:53:17.048Z,36.33
2022-12-13T04:56:21.293Z,38.40
2022-12-13T04:59:25.082Z,39.17
2022-12-13T05:02:29.135Z,37.90
2022-12-13T05:05:32.917Z,41.53
2022-12-13T05:08:39.221Z,41.73
2022-12-13T05:11:45.684Z,45.43
2022-12-13T05:14:49.716Z,40.83
2022-12-13T05:17:53.334Z,44.53
2022-12-13T05:20:57.195Z,37.27
2022-12-13T05:24:02.290Z,37.27
2022-12-13T05:27:24.595Z,33.63
2022-12-13T05:30:29.445Z,39.93
2022-12-13T05:33:33.346Z,38.70
2022-12-13T05:36:37.129Z,39.17
2022-12-13T05:39:42.161Z,45.93
2022-12-13T05:42:45.750Z,47.53
2022-12-13T05:45:49.475Z,53.43
2022-12-13T05:48:53.206Z,43.43
2022-12-13T05:51:56.867Z,42.50
2022-12-13T05:55:01.917Z,44.40
2022-12-13T05:58:06.539Z,40.83
2022-12-13T06:01:18.072Z,45.30
2022-12-13T06:04:22.085Z,43.40
2022-12-13T06:07:26.762Z,38.30
2022-12-13T06:10:34.367Z,48.00
2022-12-13T06:13:42.421Z,40.67
2022-12-13T06:16:46.701Z,41.17
2022-12-13T06:19:50.932Z,40.67
2022-12-13T06:22:55.572Z,43.10
2022-12-13T06:26:03.559Z,43.67
2022-12-13T06:29:07.166Z,40.57
2022-12-13T06:32:10.914Z,44.40
2022-12-13T06:35:28.787Z,41.43
2022-12-13T06:38:33.945Z,40.07
2022-12-13T06:41:38.942Z,41.40
2022-12-13T06:44:43.642Z,43.00
2022-12-13T06:47:47.342Z,38.77
2022-12-13T06:50:50.980Z,39.33
2022-12-13T06:53:55.165Z,35.93
2022-12-13T06:57:00.460Z,42.47
2022-12-13T07:00:05.760Z,40.13
2022-12-13T07:03:11.181Z,37.77
2022-12-13T07:06:18.194Z,41.07
2022-12-13T07:09:22.045Z,43.47
2022-12-13T07:12:27.214Z,43.80
2022-12-13T07:15:35.505Z,40.03
2022-12-13T07:18:39.325Z,36.60
2022-12-13T07:21:43.540Z,47.30
2022-12-13T07:24:47.162Z,40.70
2022-12-13T07:28:01.470Z,38.90
2022-12-13T07:31:09.975Z,38.10
2022-12-13T07:34:15.709Z,34.20
2022-12-13T07:37:29.988Z,36.40
2022-12-13T07:40:35.414Z,35.40
2022-12-13T07:43:40.909Z,41.40
2022-12-13T07:46:44.747Z,39.80
2022-12-13T07:49:48.903Z,32.07
2022-12-13T07:52:53.040Z,45.83
2022-12-13T07:55:56.768Z,40.60
2022-12-13T07:59:01.815Z,36.40
2022-12-13T08:02:06.852Z,43.30
2022-12-13T08:05:26.404Z,49.20
2022-12-13T08:08:32.102Z,46.97
2022-12-13T08:11:36.037Z,47.03
2022-12-13T08:14:44.232Z,49.13
2022-12-13T08:17:47.939Z,54.23
2022-12-13T08:20:51.562Z,62.53
2022-12-13T08:23:55.189Z,53.70
2022-12-13T08:27:02.429Z,59.47
2022-12-13T08:30:09.968Z,59.30
2022-12-13T08:33:13.773Z,64.97
2022-12-13T08:36:19.022Z,67.80
2022-12-13T08:39:22.647Z,61.50
2022-12-13T08:42:26.250Z,56.40
2022-12-13T08:45:34.283Z,65.17
2022-12-13T08:48:44.331Z,74.97
2022-12-13T08:51:48.943Z,74.30
2022-12-13T08:54:52.859Z,83.60
2022-12-13T08:57:57.996Z,75.37
2022-12-13T09:01:09.020Z,82.63
2022-12-13T09:04:12.814Z,74.67
2022-12-13T09:07:16.565Z,66.87
2022-12-13T09:10:26.265Z,76.47
2022-12-13T09:13:33.323Z,73.50
2022-12-13T09:16:39.138Z,82.03
2022-12-13T09:19:43.121Z,79.43
2022-12-13T09:22:46.828Z,79.77
2022-12-13T09:26:04.870Z,83.60
2022-12-13T09:29:11.387Z,81.77
2022-12-13T09:32:16.966Z,73.37
2022-12-13T09:35:20.928Z,74.90
2022-12-13T09:38:24.719Z,69.63
2022-12-13T09:41:34.909Z,69.97
2022-12-13T09:45:02.138Z,86.57
2022-12-13T09:48:13.367Z,79.90
2022-12-13T09:51:28.384Z,80.03
2022-12-13T09:54:48.180Z,85.17
2022-12-13T09:57:54.495Z,72.03
2022-12-13T10:01:00.515Z,76.73
2022-12-13T10:04:12.905Z,73.33
2022-12-13T10:07:22.137Z,79.57
2022-12-13T10:10:26.687Z,82.80
2022-12-13T10:13:42.870Z,85.60
2022-12-13T10:16:52.324Z,80.20
2022-12-13T10:19:57.351Z,79.07
2022-12-13T10:23:31.230Z,81.93
2022-12-13T10:26:25.343Z,85.23
2022-12-13T10:29:29.037Z,83.73
2022-12-13T10:32:37.770Z,88.57
2022-12-13T10:35:45.212Z,89.00
2022-12-13T10:38:50.729Z,92.17
2022-12-13T10:42:06.062Z,89.13
2022-12-13T10:45:23.580Z,79.57
2022-12-13T10:48:38.967Z,86.03
2022-12-13T10:51:45.019Z,79.83
2022-12-13T10:54:51.955Z,78.73
2022-12-13T10:58:09.628Z,89.03
2022-12-13T11:01:24.005Z,77.00
2022-12-13T11:04:32.134Z,83.43
2022-12-13T11:07:37.487Z,98.50
2022-12-13T11:10:41.474Z,94.73
2022-12-13T11:13:52.301Z,88.80
2022-12-13T11:17:01.201Z,90.73
2022-12-13T11:20:18.882Z,101.97
2022-12-13T11:23:31.301Z,107.37
2022-12-13T11:26:39.658Z,94.90
2022-12-13T11:30:10.074Z,99.10
2022-12-13T11:33:27.982Z,100.30
2022-12-13T11:36:43.703Z,96.03
2022-12-13T11:40:01.030Z,88.33
2022-12-13T11:43:17.654Z,115.80
2022-12-13T11:46:32.321Z,117.23
2022-12-13T11:49:42.787Z,115.90
2022-12-13T11:52:53.281Z,96.27
2022-12-13T11:56:07.457Z,103.97
2022-12-13T11:59:29.192Z,85.67
2022-12-13T12:02:37.324Z,81.87
2022-12-13T12:05:49.018Z,90.87
2022-12-13T12:09:03.657Z,86.67
2022-12-13T12:12:22.065Z,71.13
2022-12-13T12:15:33.878Z,73.43
2022-12-13T12:18:45.925Z,80.00
2022-12-13T12:22:14.993Z,74.47
2022-12-13T12:25:36.846Z,67.07
2022-12-13T12:29:11.921Z,70.13
2022-12-13T12:32:33.405Z,71.37
2022-12-13T12:35:56.695Z,67.20
2022-12-13T12:39:27.120Z,59.43
2022-12-13T12:47:08.577Z,58.27
2022-12-13T12:50:34.552Z,84.27
2022-12-13T12:53:48.008Z,59.73
2022-12-13T12:57:03.545Z,57.17
2022-12-13T13:00:15.608Z,62.60
2022-12-13T13:03:25.570Z,54.97
2022-12-13T13:06:35.915Z,57.03
2022-12-13T13:09:41.766Z,57.67
2022-12-13T13:12:46.206Z,51.23
2022-12-13T13:15:58.331Z,61.40
2022-12-13T13:19:04.527Z,58.90
2022-12-13T13:22:34.296Z,66.33
2022-12-13T13:29:43.699Z,59.07
2022-12-13T13:32:49.202Z,51.23
2022-12-13T13:35:56.857Z,60.20
2022-12-13T13:39:01.307Z,55.00
2022-12-13T13:42:20.038Z,66.00
2022-12-13T13:45:26.998Z,56.70
2022-12-13T13:48:54.271Z,58.77
2022-12-13T13:52:27.276Z,51.23
2022-12-13T13:55:55.872Z,55.50
2022-12-13T13:59:44.714Z,53.10
2022-12-13T14:03:48.122Z,58.70
2022-12-13T14:07:34.821Z,55.73
2022-12-13T14:11:02.096Z,58.83
2022-12-13T14:15:01.136Z,57.37
2022-12-13T14:18:55.759Z,57.10
2022-12-13T14:22:18.654Z,53.93
2022-12-13T14:26:01.313Z,57.17
2022-12-13T14:29:14.598Z,61.50
2022-12-13T14:32:26.618Z,51.43
2022-12-13T14:35:34.418Z,57.73
2022-12-13T14:38:39.623Z,61.47
2022-12-13T14:41:48.013Z,59.97
2022-12-13T14:44:51.933Z,54.90
2022-12-13T14:47:58.422Z,54.17
2022-12-13T14:51:02.339Z,49.27
2022-12-13T14:54:21.142Z,60.93
2022-12-13T14:57:31.173Z,57.77
2022-12-13T15:00:40.778Z,57.53
2022-12-13T15:03:44.708Z,58.67
2022-12-13T15:06:55.582Z,56.57
2022-12-13T15:10:04.535Z,76.97
2022-12-13T15:13:19.576Z,66.37
2022-12-13T15:16:28.128Z,60.73
2022-12-13T15:19:36.266Z,65.67
2022-12-13T15:22:42.941Z,58.50
2022-12-13T15:25:51.195Z,61.53
2022-12-13T15:28:59.853Z,61.80
2022-12-13T15:32:05.651Z,58.67
2022-12-13T15:35:17.790Z,62.77
2022-12-13T15:38:28.804Z,70.80
2022-12-13T15:41:43.024Z,63.17
2022-12-13T15:44:52.571Z,64.17
2022-12-13T15:47:56.961Z,56.27
2022-12-13T15:51:13.129Z,62.53
2022-12-13T15:54:33.154Z,62.27
2022-12-13T15:57:52.422Z,60.03
2022-12-13T16:00:56.064Z,58.50
2022-12-13T16:04:03.592Z,61.73
2022-12-13T16:07:07.630Z,59.47
2022-12-13T16:10:20.826Z,62.73
2022-12-13T16:13:29.753Z,57.23
2022-12-13T16:16:33.812Z,63.67
2022-12-13T16:19:37.773Z,58.83
2022-12-13T16:22:42.148Z,64.30
2022-12-13T16:25:46.253Z,57.77
2022-12-13T16:28:51.656Z,60.87
2022-12-13T16:32:01.506Z,67.47
2022-12-13T16:35:12.062Z,63.63
2022-12-13T16:38:26.077Z,66.47
2022-12-13T16:41:30.850Z,74.33
2022-12-13T16:44:38.985Z,66.20
2022-12-13T16:47:48.550Z,76.00
2022-12-13T16:50:57.458Z,68.00
2022-12-13T16:54:01.463Z,63.17
2022-12-13T16:57:05.433Z,58.70
2022-12-13T17:00:14.548Z,57.83
2022-12-13T17:03:18.138Z,62.00
2022-12-13T17:06:25.549Z,53.87
2022-12-13T17:09:29.190Z,59.83
2022-12-13T17:12:32.782Z,53.13
2022-12-13T17:15:38.945Z,51.10
2022-12-13T17:18:42.756Z,63.60
2022-12-13T17:21:46.511Z,64.30
2022-12-13T17:24:50.273Z,61.80
2022-12-13T17:27:53.991Z,57.57
2022-12-13T17:31:08.682Z,58.60
2022-12-13T17:34:12.488Z,55.67
2022-12-13T17:37:16.170Z,55.67
2022-12-13T17:40:20.204Z,56.73
2022-12-13T17:43:33.089Z,58.77
2022-12-13T17:46:39.283Z,54.27
2022-12-13T17:49:42.909Z,57.03
2022-12-13T17:52:46.502Z,56.80
2022-12-13T17:55:57.919Z,57.13
2022-12-13T17:59:01.576Z,61.03
2022-12-13T18:02:07.055Z,58.40
2022-12-13T18:05:17.718Z,59.53
2022-12-13T18:08:21.552Z,63.37
2022-12-13T18:11:34.032Z,59.77
2022-12-13T18:14:39.063Z,56.87
2022-12-13T18:18:10.692Z,55.80
2022-12-13T18:21:10.315Z,63.63
2022-12-13T18:24:14.276Z,60.93
2022-12-13T18:27:17.941Z,58.50
2022-12-13T18:30:22.058Z,74.33
2022-12-13T18:33:27.615Z,78.63
2022-12-13T18:36:31.746Z,70.97
2022-12-13T18:39:36.053Z,78.47
2022-12-13T18:42:39.794Z,79.33
2022-12-13T18:45:43.557Z,74.90
2022-12-13T18:48:49.048Z,69.60
2022-12-13T18:51:52.789Z,57.17
2022-12-13T18:54:56.510Z,64.63
2022-12-13T18:58:00.724Z,61.87
2022-12-13T19:01:05.701Z,59.43
2022-12-13T19:04:12.702Z,54.10
2022-12-13T19:07:16.570Z,57.00
2022-12-13T19:10:20.526Z,62.17
2022-12-13T19:13:26.450Z,62.50
2022-12-13T19:16:30.473Z,62.33
2022-12-13T19:19:35.717Z,63.60
2022-12-13T19:22:39.795Z,57.20
2022-12-13T19:25:43.740Z,67.73
2022-12-13T19:28:48.406Z,67.93
2022-12-13T19:31:52.405Z,60.97
2022-12-13T19:34:57.458Z,58.77
2022-12-13T19:38:01.766Z,61.57
2022-12-13T19:41:10.096Z,60.47
2022-12-13T19:44:13.774Z,58.17
2022-12-13T19:47:17.722Z,62.77
2022-12-13T19:50:23.043Z,70.67
2022-12-13T19:53:27.054Z,77.40
2022-12-13T19:56:30.987Z,64.50
2022-12-13T19:59:34.613Z,64.47
2022-12-13T20:02:38.726Z,64.13
2022-12-13T20:05:45.792Z,91.70
2022-12-13T20:08:51.855Z,104.70
2022-12-13T20:11:55.583Z,76.07
2022-12-13T20:15:01.133Z,74.60
2022-12-13T20:18:05.006Z,74.03
2022-12-13T20:21:14.608Z,68.57
2022-12-13T20:24:18.954Z,72.30
2022-12-13T20:27:22.844Z,68.70
2022-12-13T20:30:27.674Z,76.07
2022-12-13T20:33:31.629Z,71.03
2022-12-13T20:36:37.894Z,74.30
2022-12-13T20:39:42.281Z,70.73
2022-12-13T20:42:46.299Z,68.63
2022-12-13T20:45:49.967Z,67.20
2022-12-13T20:48:55.224Z,65.47
2022-12-13T20:52:00.230Z,63.67
2022-12-13T20:55:03.897Z,61.27
2022-12-13T20:58:07.547Z,60.63
2022-12-13T21:01:17.915Z,49.30
2022-12-13T21:04:21.842Z,56.53
2022-12-13T21:07:40.678Z,56.83
2022-12-13T21:10:44.245Z,59.47
2022-12-13T21:13:48.331Z,57.77
2022-12-13T21:16:54.199Z,54.47
2022-12-13T21:19:57.891Z,63.33
2022-12-13T21:23:03.682Z,68.23
2022-12-13T21:26:08.335Z,70.33
2022-12-13T21:29:13.693Z,65.67
2022-12-13T21:32:17.332Z,62.40
2022-12-13T21:35:20.915Z,57.43
2022-12-13T21:38:26.065Z,62.10
2022-12-13T21:41:30.288Z,57.70
2022-12-13T21:44:33.882Z,60.70
2022-12-13T21:47:37.470Z,60.60
2022-12-13T21:50:41.058Z,54.17
2022-12-13T21:53:46.841Z,57.23
2022-12-13T21:57:07.969Z,52.13
2022-12-13T22:00:13.220Z,51.60
2022-12-13T22:03:16.978Z,55.33
2022-12-13T22:06:20.607Z,50.80
2022-12-13T22:09:25.769Z,49.67
2022-12-13T22:12:36.038Z,49.63
2022-12-13T22:15:39.635Z,51.77
2022-12-13T22:18:43.255Z,52.83
2022-12-13T22:21:46.861Z,49.17
2022-12-13T22:24:53.794Z,56.47
2022-12-13T22:27:57.575Z,58.37
2022-12-13T22:31:01.143Z,46.47
2022-12-13T22:34:04.862Z,53.47
2022-12-13T22:37:08.590Z,51.87
2022-12-13T22:40:14.415Z,53.50
2022-12-13T22:43:20.647Z,55.10
2022-12-13T22:46:24.730Z,48.27
2022-12-13T22:49:28.513Z,55.33
2022-12-13T22:52:34.170Z,54.07
2022-12-13T22:55:39.841Z,52.17
2022-12-13T22:58:44.007Z,52.93
2022-12-13T23:01:48.007Z,53.10
2022-12-13T23:04:51.590Z,61.60
2022-12-13T23:07:55.178Z,51.53
2022-12-13T23:11:19.112Z,51.20
2022-12-13T23:14:30.008Z,48.47
2022-12-13T23:17:33.647Z,49.07
2022-12-13T23:20:37.246Z,48.17
2022-12-13T23:23:41.435Z,51.93
2022-12-13T23:26:46.391Z,55.03
2022-12-13T23:29:50.255Z,46.37
2022-12-13T23:32:53.782Z,44.97
2022-12-13T23:36:06.297Z,50.93
2022-12-13T23:39:13.233Z,49.90
2022-12-13T23:42:18.181Z,47.60
2022-12-13T23:45:40.729Z,46.03
2022-12-13T23:48:46.038Z,44.37
2022-12-13T23:51:49.605Z,48.63
2022-12-13T23:54:53.298Z,47.60
2022-12-13T23:57:58.307Z,41.50
